sensor_id;sensor_type;location;lat;lon;timestamp;P1;durP1;ratioP1;P2;durP2;ratioP2
49514;SDS011;35415;47.870;16.058;2022-10-31T00:00:44;11.63;;;6.82;;
49514;SDS011;35415;47.870;16.058;2022-10-31T00:03:11;11.73;;;6.65;;
49514;SDS011;35415;47.870;16.058;2022-10-31T00:05:40;11.18;;;7.28;;
49514;SDS011;35415;47.870;16.058;2022-10-31T00:08:10;9.43;;;5.50;;
49514;SDS011;35415;47.870;16.058;2022-10-31T00:10:37;8.25;;;5.78;;
49514;SDS011;35415;47.870;16.058;2022-10-31T00:13:05;10.48;;;5.95;;
49514;SDS011;35415;47.870;16.058;2022-10-31T00:15:32;7.65;;;5.95;;
49514;SDS011;35415;47.870;16.058;2022-10-31T00:18:00;10.10;;;6.20;;
49514;SDS011;35415;47.870;16.058;2022-10-31T00:20:28;9.77;;;5.50;;
49514;SDS011;35415;47.870;16.058;2022-10-31T00:22:57;10.93;;;6.65;;
49514;SDS011;35415;47.870;16.058;2022-10-31T00:25:26;10.77;;;6.15;;
49514;SDS011;35415;47.870;16.058;2022-10-31T00:27:54;9.43;;;6.95;;
49514;SDS011;35415;47.870;16.058;2022-10-31T00:30:22;11.77;;;6.05;;
49514;SDS011;35415;47.870;16.058;2022-10-31T00:32:49;7.82;;;5.60;;
49514;SDS011;35415;47.870;16.058;2022-10-31T00:35:16;7.72;;;5.32;;
49514;SDS011;35415;47.870;16.058;2022-10-31T00:37:43;10.85;;;5.78;;
49514;SDS011;35415;47.870;16.058;2022-10-31T00:40:10;9.52;;;6.05;;
49514;SDS011;35415;47.870;16.058;2022-10-31T00:42:40;10.02;;;6.28;;
49514;SDS011;35415;47.870;16.058;2022-10-31T00:45:08;9.13;;;5.68;;
49514;SDS011;35415;47.870;16.058;2022-10-31T00:47:36;9.73;;;5.80;;
49514;SDS011;35415;47.870;16.058;2022-10-31T00:50:04;8.93;;;5.50;;
49514;SDS011;35415;47.870;16.058;2022-10-31T00:52:32;8.00;;;5.75;;
49514;SDS011;35415;47.870;16.058;2022-10-31T00:54:59;12.25;;;6.20;;
49514;SDS011;35415;47.870;16.058;2022-10-31T00:57:26;11.98;;;5.80;;
49514;SDS011;35415;47.870;16.058;2022-10-31T00:59:54;7.15;;;5.25;;
49514;SDS011;35415;47.870;16.058;2022-10-31T01:02:21;11.60;;;6.00;;
49514;SDS011;35415;47.870;16.058;2022-10-31T01:04:48;7.90;;;5.57;;
49514;SDS011;35415;47.870;16.058;2022-10-31T01:07:15;6.72;;;4.93;;
49514;SDS011;35415;47.870;16.058;2022-10-31T01:09:42;9.43;;;5.80;;
49514;SDS011;35415;47.870;16.058;2022-10-31T01:12:09;8.85;;;5.25;;
49514;SDS011;35415;47.870;16.058;2022-10-31T01:14:36;8.57;;;5.10;;
49514;SDS011;35415;47.870;16.058;2022-10-31T01:17:05;10.23;;;5.03;;
49514;SDS011;35415;47.870;16.058;2022-10-31T01:19:32;7.95;;;5.32;;
49514;SDS011;35415;47.870;16.058;2022-10-31T01:21:59;9.05;;;4.90;;
49514;SDS011;35415;47.870;16.058;2022-10-31T01:24:26;10.38;;;5.82;;
49514;SDS011;35415;47.870;16.058;2022-10-31T01:26:53;9.35;;;6.20;;
49514;SDS011;35415;47.870;16.058;2022-10-31T01:29:20;12.43;;;5.30;;
49514;SDS011;35415;47.870;16.058;2022-10-31T01:31:49;9.75;;;5.78;;
49514;SDS011;35415;47.870;16.058;2022-10-31T01:34:18;11.75;;;6.28;;
49514;SDS011;35415;47.870;16.058;2022-10-31T01:36:45;10.20;;;5.80;;
49514;SDS011;35415;47.870;16.058;2022-10-31T01:39:16;12.60;;;6.25;;
49514;SDS011;35415;47.870;16.058;2022-10-31T01:41:45;13.00;;;6.20;;
49514;SDS011;35415;47.870;16.058;2022-10-31T01:47:18;10.68;;;6.03;;
49514;SDS011;35415;47.870;16.058;2022-10-31T01:49:52;11.35;;;5.28;;
49514;SDS011;35415;47.870;16.058;2022-10-31T01:52:23;9.93;;;5.53;;
49514;SDS011;35415;47.870;16.058;2022-10-31T01:54:54;9.80;;;5.20;;
49514;SDS011;35415;47.870;16.058;2022-10-31T01:57:24;12.93;;;5.47;;
49514;SDS011;35415;47.870;16.058;2022-10-31T01:59:53;11.40;;;5.18;;
49514;SDS011;35415;47.870;16.058;2022-10-31T02:02:24;14.48;;;6.65;;
49514;SDS011;35415;47.870;16.058;2022-10-31T02:04:55;12.98;;;5.35;;
49514;SDS011;35415;47.870;16.058;2022-10-31T02:07:24;10.48;;;5.50;;
49514;SDS011;35415;47.870;16.058;2022-10-31T02:09:54;10.82;;;4.65;;
49514;SDS011;35415;47.870;16.058;2022-10-31T02:12:23;11.52;;;5.55;;
49514;SDS011;35415;47.870;16.058;2022-10-31T02:14:51;7.97;;;5.05;;
49514;SDS011;35415;47.870;16.058;2022-10-31T02:17:18;14.48;;;6.03;;
49514;SDS011;35415;47.870;16.058;2022-10-31T02:19:46;8.55;;;4.82;;
49514;SDS011;35415;47.870;16.058;2022-10-31T02:22:23;11.55;;;4.75;;
49514;SDS011;35415;47.870;16.058;2022-10-31T02:24:58;10.02;;;5.82;;
49514;SDS011;35415;47.870;16.058;2022-10-31T02:27:42;12.45;;;5.10;;
49514;SDS011;35415;47.870;16.058;2022-10-31T02:30:27;13.07;;;6.03;;
49514;SDS011;35415;47.870;16.058;2022-10-31T02:33:09;11.93;;;5.15;;
49514;SDS011;35415;47.870;16.058;2022-10-31T02:35:47;9.02;;;4.47;;
49514;SDS011;35415;47.870;16.058;2022-10-31T02:38:25;10.85;;;4.88;;
49514;SDS011;35415;47.870;16.058;2022-10-31T02:41:01;9.65;;;5.07;;
49514;SDS011;35415;47.870;16.058;2022-10-31T02:43:40;8.35;;;4.00;;
49514;SDS011;35415;47.870;16.058;2022-10-31T02:46:16;7.70;;;5.00;;
49514;SDS011;35415;47.870;16.058;2022-10-31T02:48:52;9.85;;;4.93;;
49514;SDS011;35415;47.870;16.058;2022-10-31T02:51:24;9.75;;;4.82;;
49514;SDS011;35415;47.870;16.058;2022-10-31T02:53:51;8.75;;;5.20;;
49514;SDS011;35415;47.870;16.058;2022-10-31T02:56:19;12.18;;;4.82;;
49514;SDS011;35415;47.870;16.058;2022-10-31T02:58:47;9.77;;;5.72;;
49514;SDS011;35415;47.870;16.058;2022-10-31T03:01:21;10.73;;;5.60;;
49514;SDS011;35415;47.870;16.058;2022-10-31T03:04:11;7.63;;;4.68;;
49514;SDS011;35415;47.870;16.058;2022-10-31T03:06:52;9.45;;;5.70;;
49514;SDS011;35415;47.870;16.058;2022-10-31T03:11:56;9.85;;;4.55;;
49514;SDS011;35415;47.870;16.058;2022-10-31T03:14:26;8.73;;;4.68;;
49514;SDS011;35415;47.870;16.058;2022-10-31T03:17:04;12.05;;;5.90;;
49514;SDS011;35415;47.870;16.058;2022-10-31T03:19:37;15.55;;;6.10;;
49514;SDS011;35415;47.870;16.058;2022-10-31T03:22:07;9.35;;;5.30;;
49514;SDS011;35415;47.870;16.058;2022-10-31T03:24:42;13.13;;;6.20;;
49514;SDS011;35415;47.870;16.058;2022-10-31T03:27:11;16.05;;;6.47;;
49514;SDS011;35415;47.870;16.058;2022-10-31T03:29:42;16.10;;;6.97;;
49514;SDS011;35415;47.870;16.058;2022-10-31T03:32:12;14.10;;;6.40;;
49514;SDS011;35415;47.870;16.058;2022-10-31T03:34:44;20.42;;;7.35;;
49514;SDS011;35415;47.870;16.058;2022-10-31T03:37:13;12.25;;;6.32;;
49514;SDS011;35415;47.870;16.058;2022-10-31T03:39:45;15.00;;;5.93;;
49514;SDS011;35415;47.870;16.058;2022-10-31T03:42:15;12.57;;;5.55;;
49514;SDS011;35415;47.870;16.058;2022-10-31T03:44:46;11.27;;;6.13;;
49514;SDS011;35415;47.870;16.058;2022-10-31T03:49:46;13.25;;;5.82;;
49514;SDS011;35415;47.870;16.058;2022-10-31T03:52:16;12.18;;;5.63;;
49514;SDS011;35415;47.870;16.058;2022-10-31T03:54:49;11.07;;;6.30;;
49514;SDS011;35415;47.870;16.058;2022-10-31T03:57:23;13.00;;;5.80;;
49514;SDS011;35415;47.870;16.058;2022-10-31T03:59:54;11.07;;;5.53;;
49514;SDS011;35415;47.870;16.058;2022-10-31T04:02:27;10.07;;;5.20;;
49514;SDS011;35415;47.870;16.058;2022-10-31T04:04:59;11.00;;;5.57;;
49514;SDS011;35415;47.870;16.058;2022-10-31T04:07:28;8.80;;;4.93;;
49514;SDS011;35415;47.870;16.058;2022-10-31T04:10:00;11.02;;;5.28;;
49514;SDS011;35415;47.870;16.058;2022-10-31T04:12:30;9.25;;;4.75;;
49514;SDS011;35415;47.870;16.058;2022-10-31T04:15:01;8.07;;;5.25;;
49514;SDS011;35415;47.870;16.058;2022-10-31T04:17:31;7.95;;;4.60;;
49514;SDS011;35415;47.870;16.058;2022-10-31T04:20:04;7.13;;;4.50;;
49514;SDS011;35415;47.870;16.058;2022-10-31T04:22:32;8.32;;;4.20;;
49514;SDS011;35415;47.870;16.058;2022-10-31T04:24:59;8.07;;;4.50;;
49514;SDS011;35415;47.870;16.058;2022-10-31T04:27:27;5.53;;;3.50;;
49514;SDS011;35415;47.870;16.058;2022-10-31T04:29:54;9.82;;;4.05;;
49514;SDS011;35415;47.870;16.058;2022-10-31T04:32:21;6.22;;;4.00;;
49514;SDS011;35415;47.870;16.058;2022-10-31T04:34:48;4.75;;;3.92;;
49514;SDS011;35415;47.870;16.058;2022-10-31T04:37:16;5.68;;;3.90;;
49514;SDS011;35415;47.870;16.058;2022-10-31T04:39:43;4.30;;;3.35;;
49514;SDS011;35415;47.870;16.058;2022-10-31T04:42:11;4.45;;;3.20;;
49514;SDS011;35415;47.870;16.058;2022-10-31T04:44:38;7.47;;;3.80;;
49514;SDS011;35415;47.870;16.058;2022-10-31T04:47:05;6.88;;;4.00;;
49514;SDS011;35415;47.870;16.058;2022-10-31T04:49:32;6.72;;;3.67;;
49514;SDS011;35415;47.870;16.058;2022-10-31T04:51:59;4.93;;;3.92;;
49514;SDS011;35415;47.870;16.058;2022-10-31T04:54:27;4.90;;;3.20;;
49514;SDS011;35415;47.870;16.058;2022-10-31T04:56:54;6.25;;;4.05;;
49514;SDS011;35415;47.870;16.058;2022-10-31T04:59:22;6.72;;;3.60;;
49514;SDS011;35415;47.870;16.058;2022-10-31T05:01:51;5.28;;;3.40;;
49514;SDS011;35415;47.870;16.058;2022-10-31T05:04:17;6.53;;;3.30;;
49514;SDS011;35415;47.870;16.058;2022-10-31T05:06:45;6.60;;;3.55;;
49514;SDS011;35415;47.870;16.058;2022-10-31T05:09:11;6.32;;;3.10;;
49514;SDS011;35415;47.870;16.058;2022-10-31T05:11:40;8.70;;;3.42;;
49514;SDS011;35415;47.870;16.058;2022-10-31T05:14:07;9.88;;;4.00;;
49514;SDS011;35415;47.870;16.058;2022-10-31T05:16:34;6.57;;;3.85;;
49514;SDS011;35415;47.870;16.058;2022-10-31T05:19:01;10.77;;;5.20;;
49514;SDS011;35415;47.870;16.058;2022-10-31T05:21:28;5.60;;;3.50;;
49514;SDS011;35415;47.870;16.058;2022-10-31T05:23:55;7.03;;;3.60;;
49514;SDS011;35415;47.870;16.058;2022-10-31T05:26:22;6.60;;;4.00;;
49514;SDS011;35415;47.870;16.058;2022-10-31T05:28:51;5.80;;;3.50;;
49514;SDS011;35415;47.870;16.058;2022-10-31T05:31:18;4.80;;;3.58;;
49514;SDS011;35415;47.870;16.058;2022-10-31T05:33:45;9.75;;;3.38;;
49514;SDS011;35415;47.870;16.058;2022-10-31T05:36:12;6.22;;;3.58;;
49514;SDS011;35415;47.870;16.058;2022-10-31T05:38:39;4.38;;;3.15;;
49514;SDS011;35415;47.870;16.058;2022-10-31T05:41:06;6.80;;;3.30;;
49514;SDS011;35415;47.870;16.058;2022-10-31T05:43:34;6.10;;;3.55;;
49514;SDS011;35415;47.870;16.058;2022-10-31T05:46:03;8.27;;;3.50;;
49514;SDS011;35415;47.870;16.058;2022-10-31T05:48:31;6.05;;;3.60;;
49514;SDS011;35415;47.870;16.058;2022-10-31T05:50:58;7.50;;;3.75;;
49514;SDS011;35415;47.870;16.058;2022-10-31T05:53:25;6.18;;;3.33;;
49514;SDS011;35415;47.870;16.058;2022-10-31T05:55:52;8.15;;;3.17;;
49514;SDS011;35415;47.870;16.058;2022-10-31T05:58:19;7.10;;;3.70;;
49514;SDS011;35415;47.870;16.058;2022-10-31T06:00:46;6.80;;;3.45;;
49514;SDS011;35415;47.870;16.058;2022-10-31T06:03:14;5.82;;;3.67;;
49514;SDS011;35415;47.870;16.058;2022-10-31T06:05:41;8.27;;;2.95;;
49514;SDS011;35415;47.870;16.058;2022-10-31T06:08:08;4.15;;;3.15;;
49514;SDS011;35415;47.870;16.058;2022-10-31T06:10:35;5.88;;;2.92;;
49514;SDS011;35415;47.870;16.058;2022-10-31T06:13:02;8.07;;;4.30;;
49514;SDS011;35415;47.870;16.058;2022-10-31T06:15:31;6.68;;;3.72;;
49514;SDS011;35415;47.870;16.058;2022-10-31T06:17:58;7.43;;;3.50;;
49514;SDS011;35415;47.870;16.058;2022-10-31T06:20:28;9.20;;;3.20;;
49514;SDS011;35415;47.870;16.058;2022-10-31T06:22:55;6.57;;;3.47;;
49514;SDS011;35415;47.870;16.058;2022-10-31T06:25:23;5.80;;;3.30;;
49514;SDS011;35415;47.870;16.058;2022-10-31T06:27:50;8.35;;;3.20;;
49514;SDS011;35415;47.870;16.058;2022-10-31T06:30:17;6.32;;;3.50;;
49514;SDS011;35415;47.870;16.058;2022-10-31T06:32:44;5.50;;;3.97;;
49514;SDS011;35415;47.870;16.058;2022-10-31T06:35:11;6.07;;;3.30;;
49514;SDS011;35415;47.870;16.058;2022-10-31T06:37:40;10.98;;;3.17;;
49514;SDS011;35415;47.870;16.058;2022-10-31T06:40:07;15.15;;;4.07;;
49514;SDS011;35415;47.870;16.058;2022-10-31T06:42:35;7.38;;;3.47;;
49514;SDS011;35415;47.870;16.058;2022-10-31T06:45:03;6.28;;;3.05;;
49514;SDS011;35415;47.870;16.058;2022-10-31T06:47:31;6.18;;;3.58;;
49514;SDS011;35415;47.870;16.058;2022-10-31T06:49:58;6.85;;;4.93;;
49514;SDS011;35415;47.870;16.058;2022-10-31T06:52:25;10.05;;;4.30;;
49514;SDS011;35415;47.870;16.058;2022-10-31T06:54:53;9.25;;;4.80;;
49514;SDS011;35415;47.870;16.058;2022-10-31T06:57:20;11.88;;;5.75;;
49514;SDS011;35415;47.870;16.058;2022-10-31T06:59:47;10.48;;;4.43;;
49514;SDS011;35415;47.870;16.058;2022-10-31T07:02:14;7.55;;;3.70;;
49514;SDS011;35415;47.870;16.058;2022-10-31T07:04:42;7.20;;;3.70;;
49514;SDS011;35415;47.870;16.058;2022-10-31T07:07:09;8.25;;;3.97;;
49514;SDS011;35415;47.870;16.058;2022-10-31T07:09:36;7.45;;;4.53;;
49514;SDS011;35415;47.870;16.058;2022-10-31T07:12:05;7.90;;;4.10;;
49514;SDS011;35415;47.870;16.058;2022-10-31T07:14:32;10.70;;;4.22;;
49514;SDS011;35415;47.870;16.058;2022-10-31T07:16:59;10.55;;;4.03;;
49514;SDS011;35415;47.870;16.058;2022-10-31T07:19:26;7.45;;;3.95;;
49514;SDS011;35415;47.870;16.058;2022-10-31T07:21:54;8.90;;;4.30;;
49514;SDS011;35415;47.870;16.058;2022-10-31T07:24:21;7.18;;;4.68;;
49514;SDS011;35415;47.870;16.058;2022-10-31T07:26:50;6.18;;;3.67;;
49514;SDS011;35415;47.870;16.058;2022-10-31T07:29:18;11.60;;;3.95;;
49514;SDS011;35415;47.870;16.058;2022-10-31T07:31:45;11.57;;;5.13;;
49514;SDS011;35415;47.870;16.058;2022-10-31T07:34:13;9.07;;;4.30;;
49514;SDS011;35415;47.870;16.058;2022-10-31T07:36:40;6.43;;;3.65;;
49514;SDS011;35415;47.870;16.058;2022-10-31T07:39:07;10.82;;;4.45;;
49514;SDS011;35415;47.870;16.058;2022-10-31T07:41:34;9.63;;;4.13;;
49514;SDS011;35415;47.870;16.058;2022-10-31T07:44:02;6.10;;;3.70;;
49514;SDS011;35415;47.870;16.058;2022-10-31T07:46:32;10.65;;;4.95;;
49514;SDS011;35415;47.870;16.058;2022-10-31T07:48:59;8.27;;;3.95;;
49514;SDS011;35415;47.870;16.058;2022-10-31T07:51:26;10.77;;;3.85;;
49514;SDS011;35415;47.870;16.058;2022-10-31T07:53:53;11.20;;;4.05;;
49514;SDS011;35415;47.870;16.058;2022-10-31T07:56:21;6.03;;;3.75;;
49514;SDS011;35415;47.870;16.058;2022-10-31T07:58:48;9.68;;;3.63;;
49514;SDS011;35415;47.870;16.058;2022-10-31T08:01:15;6.50;;;3.75;;
49514;SDS011;35415;47.870;16.058;2022-10-31T08:03:44;10.45;;;3.90;;
49514;SDS011;35415;47.870;16.058;2022-10-31T08:06:11;8.07;;;4.10;;
49514;SDS011;35415;47.870;16.058;2022-10-31T08:08:38;7.85;;;3.92;;
49514;SDS011;35415;47.870;16.058;2022-10-31T08:11:05;9.20;;;4.88;;
49514;SDS011;35415;47.870;16.058;2022-10-31T08:13:32;6.47;;;3.97;;
49514;SDS011;35415;47.870;16.058;2022-10-31T08:16:00;8.93;;;4.45;;
49514;SDS011;35415;47.870;16.058;2022-10-31T08:18:29;6.95;;;3.38;;
49514;SDS011;35415;47.870;16.058;2022-10-31T08:21:00;8.00;;;3.80;;
49514;SDS011;35415;47.870;16.058;2022-10-31T08:23:27;10.50;;;4.47;;
49514;SDS011;35415;47.870;16.058;2022-10-31T08:25:54;9.48;;;3.80;;
49514;SDS011;35415;47.870;16.058;2022-10-31T08:28:23;9.98;;;3.58;;
49514;SDS011;35415;47.870;16.058;2022-10-31T08:30:52;14.02;;;4.65;;
49514;SDS011;35415;47.870;16.058;2022-10-31T08:33:19;10.30;;;5.05;;
49514;SDS011;35415;47.870;16.058;2022-10-31T08:35:47;9.65;;;4.88;;
49514;SDS011;35415;47.870;16.058;2022-10-31T08:38:16;12.13;;;5.95;;
49514;SDS011;35415;47.870;16.058;2022-10-31T08:40:43;7.95;;;4.95;;
49514;SDS011;35415;47.870;16.058;2022-10-31T08:43:15;10.98;;;5.60;;
49514;SDS011;35415;47.870;16.058;2022-10-31T08:45:44;11.00;;;5.38;;
49514;SDS011;35415;47.870;16.058;2022-10-31T08:48:15;10.68;;;6.38;;
49514;SDS011;35415;47.870;16.058;2022-10-31T08:50:44;12.07;;;6.78;;
49514;SDS011;35415;47.870;16.058;2022-10-31T08:53:12;20.73;;;10.30;;
49514;SDS011;35415;47.870;16.058;2022-10-31T08:55:43;18.15;;;10.35;;
49514;SDS011;35415;47.870;16.058;2022-10-31T08:58:12;20.05;;;8.68;;
49514;SDS011;35415;47.870;16.058;2022-10-31T09:00:41;17.10;;;8.93;;
49514;SDS011;35415;47.870;16.058;2022-10-31T09:03:09;15.00;;;8.52;;
49514;SDS011;35415;47.870;16.058;2022-10-31T09:05:38;10.73;;;6.43;;
49514;SDS011;35415;47.870;16.058;2022-10-31T09:08:05;8.35;;;4.38;;
49514;SDS011;35415;47.870;16.058;2022-10-31T09:10:34;4.53;;;3.53;;
49514;SDS011;35415;47.870;16.058;2022-10-31T09:13:05;4.25;;;3.28;;
49514;SDS011;35415;47.870;16.058;2022-10-31T09:15:34;4.25;;;2.88;;
49514;SDS011;35415;47.870;16.058;2022-10-31T09:18:03;4.82;;;3.15;;
49514;SDS011;35415;47.870;16.058;2022-10-31T09:20:31;6.97;;;3.15;;
49514;SDS011;35415;47.870;16.058;2022-10-31T09:23:00;5.18;;;3.20;;
49514;SDS011;35415;47.870;16.058;2022-10-31T09:25:28;10.85;;;4.03;;
49514;SDS011;35415;47.870;16.058;2022-10-31T09:27:55;6.53;;;4.07;;
49514;SDS011;35415;47.870;16.058;2022-10-31T09:30:26;7.90;;;5.05;;
49514;SDS011;35415;47.870;16.058;2022-10-31T09:32:55;14.80;;;5.25;;
49514;SDS011;35415;47.870;16.058;2022-10-31T09:35:22;5.57;;;4.13;;
49514;SDS011;35415;47.870;16.058;2022-10-31T09:37:53;7.97;;;3.55;;
49514;SDS011;35415;47.870;16.058;2022-10-31T09:40:21;13.80;;;4.10;;
49514;SDS011;35415;47.870;16.058;2022-10-31T09:42:51;6.55;;;4.57;;
49514;SDS011;35415;47.870;16.058;2022-10-31T09:45:28;8.75;;;4.38;;
49514;SDS011;35415;47.870;16.058;2022-10-31T09:48:07;6.88;;;3.10;;
49514;SDS011;35415;47.870;16.058;2022-10-31T09:50:44;10.13;;;3.90;;
49514;SDS011;35415;47.870;16.058;2022-10-31T09:53:17;7.63;;;4.78;;
49514;SDS011;35415;47.870;16.058;2022-10-31T09:55:50;7.15;;;4.43;;
49514;SDS011;35415;47.870;16.058;2022-10-31T09:58:19;6.30;;;3.92;;
49514;SDS011;35415;47.870;16.058;2022-10-31T10:00:51;8.38;;;3.38;;
49514;SDS011;35415;47.870;16.058;2022-10-31T10:03:24;7.03;;;4.20;;
49514;SDS011;35415;47.870;16.058;2022-10-31T10:06:01;10.55;;;4.13;;
49514;SDS011;35415;47.870;16.058;2022-10-31T10:08:35;5.57;;;3.55;;
49514;SDS011;35415;47.870;16.058;2022-10-31T10:11:07;3.88;;;3.17;;
49514;SDS011;35415;47.870;16.058;2022-10-31T10:13:51;7.60;;;3.28;;
49514;SDS011;35415;47.870;16.058;2022-10-31T10:16:34;7.20;;;3.38;;
49514;SDS011;35415;47.870;16.058;2022-10-31T10:19:16;7.63;;;3.50;;
49514;SDS011;35415;47.870;16.058;2022-10-31T10:21:53;4.93;;;3.72;;
49514;SDS011;35415;47.870;16.058;2022-10-31T10:24:30;6.00;;;3.75;;
49514;SDS011;35415;47.870;16.058;2022-10-31T10:27:09;7.03;;;3.80;;
49514;SDS011;35415;47.870;16.058;2022-10-31T10:29:44;7.07;;;4.10;;
49514;SDS011;35415;47.870;16.058;2022-10-31T10:32:19;8.07;;;4.22;;
49514;SDS011;35415;47.870;16.058;2022-10-31T10:34:51;8.82;;;4.55;;
49514;SDS011;35415;47.870;16.058;2022-10-31T10:37:22;5.85;;;4.22;;
49514;SDS011;35415;47.870;16.058;2022-10-31T10:39:55;4.93;;;4.07;;
49514;SDS011;35415;47.870;16.058;2022-10-31T10:42:34;5.95;;;4.10;;
49514;SDS011;35415;47.870;16.058;2022-10-31T10:45:20;8.68;;;4.15;;
49514;SDS011;35415;47.870;16.058;2022-10-31T10:48:14;8.93;;;4.22;;
49514;SDS011;35415;47.870;16.058;2022-10-31T10:50:44;6.68;;;4.25;;
49514;SDS011;35415;47.870;16.058;2022-10-31T10:53:24;5.72;;;4.38;;
49514;SDS011;35415;47.870;16.058;2022-10-31T10:56:09;9.25;;;4.38;;
49514;SDS011;35415;47.870;16.058;2022-10-31T10:58:41;9.45;;;4.43;;
49514;SDS011;35415;47.870;16.058;2022-10-31T11:01:10;4.35;;;3.50;;
49514;SDS011;35415;47.870;16.058;2022-10-31T11:03:40;5.28;;;3.45;;
49514;SDS011;35415;47.870;16.058;2022-10-31T11:06:16;5.97;;;4.10;;
49514;SDS011;35415;47.870;16.058;2022-10-31T11:08:50;5.57;;;4.10;;
49514;SDS011;35415;47.870;16.058;2022-10-31T11:11:22;5.57;;;4.15;;
49514;SDS011;35415;47.870;16.058;2022-10-31T11:13:57;5.97;;;4.75;;
49514;SDS011;35415;47.870;16.058;2022-10-31T11:16:30;6.47;;;5.18;;
49514;SDS011;35415;47.870;16.058;2022-10-31T11:21:41;7.72;;;5.10;;
49514;SDS011;35415;47.870;16.058;2022-10-31T11:24:15;9.80;;;5.25;;
49514;SDS011;35415;47.870;16.058;2022-10-31T11:26:44;10.90;;;5.25;;
49514;SDS011;35415;47.870;16.058;2022-10-31T11:29:15;8.82;;;5.50;;
49514;SDS011;35415;47.870;16.058;2022-10-31T11:31:47;9.27;;;5.25;;
49514;SDS011;35415;47.870;16.058;2022-10-31T11:34:22;9.13;;;5.25;;
49514;SDS011;35415;47.870;16.058;2022-10-31T11:36:55;9.43;;;4.82;;
49514;SDS011;35415;47.870;16.058;2022-10-31T11:39:28;8.32;;;5.72;;
49514;SDS011;35415;47.870;16.058;2022-10-31T11:41:59;9.60;;;6.00;;
49514;SDS011;35415;47.870;16.058;2022-10-31T11:44:28;8.48;;;5.45;;
49514;SDS011;35415;47.870;16.058;2022-10-31T11:46:58;8.30;;;5.63;;
49514;SDS011;35415;47.870;16.058;2022-10-31T11:49:30;5.82;;;4.82;;
49514;SDS011;35415;47.870;16.058;2022-10-31T11:52:00;8.75;;;5.68;;
49514;SDS011;35415;47.870;16.058;2022-10-31T11:54:32;7.03;;;5.32;;
49514;SDS011;35415;47.870;16.058;2022-10-31T11:57:04;9.55;;;5.45;;
49514;SDS011;35415;47.870;16.058;2022-10-31T11:59:33;8.15;;;5.60;;
49514;SDS011;35415;47.870;16.058;2022-10-31T12:02:01;7.05;;;5.75;;
49514;SDS011;35415;47.870;16.058;2022-10-31T12:04:37;9.15;;;6.03;;
49514;SDS011;35415;47.870;16.058;2022-10-31T12:07:11;9.18;;;5.97;;
49514;SDS011;35415;47.870;16.058;2022-10-31T12:09:39;9.40;;;5.93;;
49514;SDS011;35415;47.870;16.058;2022-10-31T12:12:34;8.20;;;5.70;;
49514;SDS011;35415;47.870;16.058;2022-10-31T12:15:29;6.63;;;5.47;;
49514;SDS011;35415;47.870;16.058;2022-10-31T12:20:56;10.75;;;6.32;;
49514;SDS011;35415;47.870;16.058;2022-10-31T12:23:38;10.75;;;6.82;;
49514;SDS011;35415;47.870;16.058;2022-10-31T12:26:18;8.70;;;6.55;;
49514;SDS011;35415;47.870;16.058;2022-10-31T12:28:59;9.27;;;6.45;;
49514;SDS011;35415;47.870;16.058;2022-10-31T12:31:41;12.00;;;6.97;;
49514;SDS011;35415;47.870;16.058;2022-10-31T12:34:26;9.00;;;6.75;;
49514;SDS011;35415;47.870;16.058;2022-10-31T12:37:13;15.47;;;8.47;;
49514;SDS011;35415;47.870;16.058;2022-10-31T12:39:51;9.65;;;7.55;;
49514;SDS011;35415;47.870;16.058;2022-10-31T12:42:27;9.40;;;6.70;;
49514;SDS011;35415;47.870;16.058;2022-10-31T12:45:13;13.02;;;7.88;;
49514;SDS011;35415;47.870;16.058;2022-10-31T12:48:03;11.65;;;7.93;;
49514;SDS011;35415;47.870;16.058;2022-10-31T12:50:48;11.32;;;7.55;;
49514;SDS011;35415;47.870;16.058;2022-10-31T12:53:28;12.98;;;8.02;;
49514;SDS011;35415;47.870;16.058;2022-10-31T12:56:13;10.07;;;7.53;;
49514;SDS011;35415;47.870;16.058;2022-10-31T12:58:56;11.43;;;6.93;;
49514;SDS011;35415;47.870;16.058;2022-10-31T13:01:29;8.90;;;6.72;;
49514;SDS011;35415;47.870;16.058;2022-10-31T13:04:02;12.27;;;7.72;;
49514;SDS011;35415;47.870;16.058;2022-10-31T13:06:33;12.73;;;8.57;;
49514;SDS011;35415;47.870;16.058;2022-10-31T13:09:07;16.45;;;8.93;;
49514;SDS011;35415;47.870;16.058;2022-10-31T13:11:39;10.18;;;6.57;;
49514;SDS011;35415;47.870;16.058;2022-10-31T13:14:15;12.80;;;6.82;;
49514;SDS011;35415;47.870;16.058;2022-10-31T13:16:51;10.75;;;7.63;;
49514;SDS011;35415;47.870;16.058;2022-10-31T13:19:22;12.10;;;7.85;;
49514;SDS011;35415;47.870;16.058;2022-10-31T13:21:55;11.13;;;6.82;;
49514;SDS011;35415;47.870;16.058;2022-10-31T13:24:32;11.25;;;7.68;;
49514;SDS011;35415;47.870;16.058;2022-10-31T13:27:02;15.20;;;8.60;;
49514;SDS011;35415;47.870;16.058;2022-10-31T13:29:42;13.20;;;7.53;;
49514;SDS011;35415;47.870;16.058;2022-10-31T13:32:15;12.50;;;7.72;;
49514;SDS011;35415;47.870;16.058;2022-10-31T13:34:44;22.02;;;11.68;;
49514;SDS011;35415;47.870;16.058;2022-10-31T13:37:19;24.08;;;13.45;;
49514;SDS011;35415;47.870;16.058;2022-10-31T13:39:59;20.77;;;10.95;;
49514;SDS011;35415;47.870;16.058;2022-10-31T13:42:40;14.20;;;8.55;;
49514;SDS011;35415;47.870;16.058;2022-10-31T13:45:15;15.13;;;9.00;;
49514;SDS011;35415;47.870;16.058;2022-10-31T13:47:54;13.57;;;8.93;;
49514;SDS011;35415;47.870;16.058;2022-10-31T13:50:23;13.52;;;7.57;;
49514;SDS011;35415;47.870;16.058;2022-10-31T13:52:52;14.27;;;8.13;;
49514;SDS011;35415;47.870;16.058;2022-10-31T13:55:38;13.07;;;7.35;;
49514;SDS011;35415;47.870;16.058;2022-10-31T13:58:21;11.60;;;8.70;;
49514;SDS011;35415;47.870;16.058;2022-10-31T14:01:01;13.02;;;8.13;;
49514;SDS011;35415;47.870;16.058;2022-10-31T14:03:39;10.40;;;7.25;;
49514;SDS011;35415;47.870;16.058;2022-10-31T14:06:08;11.93;;;7.68;;
49514;SDS011;35415;47.870;16.058;2022-10-31T14:08:38;8.77;;;7.10;;
49514;SDS011;35415;47.870;16.058;2022-10-31T14:11:09;14.20;;;8.98;;
49514;SDS011;35415;47.870;16.058;2022-10-31T14:13:49;11.77;;;8.02;;
49514;SDS011;35415;47.870;16.058;2022-10-31T14:16:18;8.43;;;6.97;;
49514;SDS011;35415;47.870;16.058;2022-10-31T14:18:48;9.02;;;6.97;;
49514;SDS011;35415;47.870;16.058;2022-10-31T14:21:30;9.85;;;6.95;;
49514;SDS011;35415;47.870;16.058;2022-10-31T14:24:13;11.15;;;7.60;;
49514;SDS011;35415;47.870;16.058;2022-10-31T14:26:52;10.50;;;7.75;;
49514;SDS011;35415;47.870;16.058;2022-10-31T14:29:24;14.68;;;9.63;;
49514;SDS011;35415;47.870;16.058;2022-10-31T14:31:54;11.80;;;7.05;;
49514;SDS011;35415;47.870;16.058;2022-10-31T14:34:26;9.95;;;6.95;;
49514;SDS011;35415;47.870;16.058;2022-10-31T14:37:18;10.48;;;6.85;;
49514;SDS011;35415;47.870;16.058;2022-10-31T14:40:02;11.10;;;7.20;;
49514;SDS011;35415;47.870;16.058;2022-10-31T14:46:00;8.82;;;7.03;;
49514;SDS011;35415;47.870;16.058;2022-10-31T14:48:45;12.18;;;7.05;;
49514;SDS011;35415;47.870;16.058;2022-10-31T14:51:25;18.85;;;10.63;;
49514;SDS011;35415;47.870;16.058;2022-10-31T14:53:56;19.05;;;9.93;;
49514;SDS011;35415;47.870;16.058;2022-10-31T14:56:27;15.18;;;9.43;;
49514;SDS011;35415;47.870;16.058;2022-10-31T14:58:57;17.45;;;10.00;;
49514;SDS011;35415;47.870;16.058;2022-10-31T15:01:28;19.92;;;11.90;;
49514;SDS011;35415;47.870;16.058;2022-10-31T15:03:58;17.23;;;10.80;;
49514;SDS011;35415;47.870;16.058;2022-10-31T15:06:31;16.42;;;10.20;;
49514;SDS011;35415;47.870;16.058;2022-10-31T15:09:20;12.90;;;8.20;;